sensor_id;sensor_type;location;lat;lon;timestamp;temperature;humidity
65421;DHT22;52028;50.658;14.004;2022-08-18T00:00:31;21.04;69.33
65421;DHT22;52028;50.658;14.004;2022-08-18T00:03:04;20.84;69.99
65421;DHT22;52028;50.658;14.004;2022-08-18T00:05:30;20.78;69.73
65421;DHT22;52028;50.658;14.004;2022-08-18T00:07:56;20.75;67.08
65421;DHT22;52028;50.658;14.004;2022-08-18T00:10:21;20.65;66.87
65421;DHT22;52028;50.658;14.004;2022-08-18T00:12:47;20.69;66.32
65421;DHT22;52028;50.658;14.004;2022-08-18T00:15:14;20.61;67.07
65421;DHT22;52028;50.658;14.004;2022-08-18T00:17:41;20.50;66.09
65421;DHT22;52028;50.658;14.004;2022-08-18T00:20:10;20.48;65.54
65421;DHT22;52028;50.658;14.004;2022-08-18T00:22:36;20.47;65.61
65421;DHT22;52028;50.658;14.004;2022-08-18T00:25:05;20.44;65.40
65421;DHT22;52028;50.658;14.004;2022-08-18T00:27:30;20.50;64.92
65421;DHT22;52028;50.658;14.004;2022-08-18T00:29:58;20.52;65.10
65421;DHT22;52028;50.658;14.004;2022-08-18T00:32:36;20.51;65.18
65421;DHT22;52028;50.658;14.004;2022-08-18T00:37:30;20.50;66.12
65421;DHT22;52028;50.658;14.004;2022-08-18T00:39:56;20.50;67.73
65421;DHT22;52028;50.658;14.004;2022-08-18T00:42:25;20.54;68.16
65421;DHT22;52028;50.658;14.004;2022-08-18T00:44:51;20.52;68.93
65421;DHT22;52028;50.658;14.004;2022-08-18T00:47:16;20.40;69.70
65421;DHT22;52028;50.658;14.004;2022-08-18T00:49:44;20.47;69.40
65421;DHT22;52028;50.658;14.004;2022-08-18T00:52:13;20.41;69.30
65421;DHT22;52028;50.658;14.004;2022-08-18T00:54:40;20.37;69.01
65421;DHT22;52028;50.658;14.004;2022-08-18T00:57:07;20.29;69.48
65421;DHT22;52028;50.658;14.004;2022-08-18T00:59:47;20.24;69.37
65421;DHT22;52028;50.658;14.004;2022-08-18T01:02:20;20.22;68.95
65421;DHT22;52028;50.658;14.004;2022-08-18T01:05:08;20.14;69.18
65421;DHT22;52028;50.658;14.004;2022-08-18T01:07:39;20.06;69.02
65421;DHT22;52028;50.658;14.004;2022-08-18T01:10:09;19.95;69.22
65421;DHT22;52028;50.658;14.004;2022-08-18T01:12:35;19.96;68.99
65421;DHT22;52028;50.658;14.004;2022-08-18T01:15:02;20.09;68.36
65421;DHT22;52028;50.658;14.004;2022-08-18T01:17:27;20.05;68.66
65421;DHT22;52028;50.658;14.004;2022-08-18T01:20:14;20.08;69.19
65421;DHT22;52028;50.658;14.004;2022-08-18T01:23:10;20.06;69.28
65421;DHT22;52028;50.658;14.004;2022-08-18T01:25:37;19.97;69.65
65421;DHT22;52028;50.658;14.004;2022-08-18T01:28:22;19.78;71.06
65421;DHT22;52028;50.658;14.004;2022-08-18T01:30:50;19.64;71.62
65421;DHT22;52028;50.658;14.004;2022-08-18T01:33:17;19.57;72.09
65421;DHT22;52028;50.658;14.004;2022-08-18T01:35:44;19.64;72.04
65421;DHT22;52028;50.658;14.004;2022-08-18T01:38:17;19.69;72.00
65421;DHT22;52028;50.658;14.004;2022-08-18T01:40:45;19.68;72.36
65421;DHT22;52028;50.658;14.004;2022-08-18T01:43:12;19.62;72.19
65421;DHT22;52028;50.658;14.004;2022-08-18T01:45:38;19.65;71.89
65421;DHT22;52028;50.658;14.004;2022-08-18T01:48:03;19.69;71.60
65421;DHT22;52028;50.658;14.004;2022-08-18T01:50:29;19.67;71.99
65421;DHT22;52028;50.658;14.004;2022-08-18T01:52:58;19.74;72.31
65421;DHT22;52028;50.658;14.004;2022-08-18T01:55:23;19.85;71.84
65421;DHT22;52028;50.658;14.004;2022-08-18T01:57:53;19.93;71.40
65421;DHT22;52028;50.658;14.004;2022-08-18T02:00:19;19.95;71.11
65421;DHT22;52028;50.658;14.004;2022-08-18T02:02:46;19.96;71.10
65421;DHT22;52028;50.658;14.004;2022-08-18T02:05:19;19.97;70.84
65421;DHT22;52028;50.658;14.004;2022-08-18T02:07:46;19.86;71.04
65421;DHT22;52028;50.658;14.004;2022-08-18T02:10:12;19.77;70.57
65421;DHT22;52028;50.658;14.004;2022-08-18T02:12:39;19.61;70.69
65421;DHT22;52028;50.658;14.004;2022-08-18T02:15:05;19.51;70.87
65421;DHT22;52028;50.658;14.004;2022-08-18T02:17:39;19.50;71.06
65421;DHT22;52028;50.658;14.004;2022-08-18T02:20:06;19.46;71.45
65421;DHT22;52028;50.658;14.004;2022-08-18T02:22:33;19.37;72.51
65421;DHT22;52028;50.658;14.004;2022-08-18T02:24:58;19.31;73.14
65421;DHT22;52028;50.658;14.004;2022-08-18T02:27:26;19.27;73.65
65421;DHT22;52028;50.658;14.004;2022-08-18T02:29:52;19.34;73.58
65421;DHT22;52028;50.658;14.004;2022-08-18T02:32:17;19.40;73.88
65421;DHT22;52028;50.658;14.004;2022-08-18T02:34:42;19.41;73.82
65421;DHT22;52028;50.658;14.004;2022-08-18T02:37:08;19.41;74.00
65421;DHT22;52028;50.658;14.004;2022-08-18T02:39:35;19.02;74.72
65421;DHT22;52028;50.658;14.004;2022-08-18T02:42:05;18.84;75.25
65421;DHT22;52028;50.658;14.004;2022-08-18T02:44:31;18.84;75.14
65421;DHT22;52028;50.658;14.004;2022-08-18T02:46:57;18.73;75.52
65421;DHT22;52028;50.658;14.004;2022-08-18T02:49:22;18.75;75.58
65421;DHT22;52028;50.658;14.004;2022-08-18T02:51:52;18.75;75.70
65421;DHT22;52028;50.658;14.004;2022-08-18T02:54:19;18.82;75.47
65421;DHT22;52028;50.658;14.004;2022-08-18T02:56:47;18.89;75.22
65421;DHT22;52028;50.658;14.004;2022-08-18T02:59:22;18.94;75.13
65421;DHT22;52028;50.658;14.004;2022-08-18T03:01:50;19.02;74.98
65421;DHT22;52028;50.658;14.004;2022-08-18T03:04:20;19.12;74.45
65421;DHT22;52028;50.658;14.004;2022-08-18T03:06:45;19.09;74.16
65421;DHT22;52028;50.658;14.004;2022-08-18T03:09:12;19.05;74.40
65421;DHT22;52028;50.658;14.004;2022-08-18T03:11:38;18.94;74.68
65421;DHT22;52028;50.658;14.004;2022-08-18T03:14:04;18.96;74.51
65421;DHT22;52028;50.658;14.004;2022-08-18T03:16:30;18.99;74.36
65421;DHT22;52028;50.658;14.004;2022-08-18T03:18:58;18.96;74.36
65421;DHT22;52028;50.658;14.004;2022-08-18T03:21:25;19.06;74.00
65421;DHT22;52028;50.658;14.004;2022-08-18T03:23:52;19.16;73.57
65421;DHT22;52028;50.658;14.004;2022-08-18T03:26:20;19.03;73.55
65421;DHT22;52028;50.658;14.004;2022-08-18T03:28:48;18.82;74.30
65421;DHT22;52028;50.658;14.004;2022-08-18T03:31:15;18.71;74.66
65421;DHT22;52028;50.658;14.004;2022-08-18T03:33:42;18.67;74.58
65421;DHT22;52028;50.658;14.004;2022-08-18T03:36:10;18.67;74.52
65421;DHT22;52028;50.658;14.004;2022-08-18T03:38:40;18.68;74.58
65421;DHT22;52028;50.658;14.004;2022-08-18T03:41:06;18.68;74.40
65421;DHT22;52028;50.658;14.004;2022-08-18T03:43:33;18.65;74.09
65421;DHT22;52028;50.658;14.004;2022-08-18T03:46:04;18.65;74.35
65421;DHT22;52028;50.658;14.004;2022-08-18T03:48:29;18.71;74.14
65421;DHT22;52028;50.658;14.004;2022-08-18T03:51:02;18.68;74.09
65421;DHT22;52028;50.658;14.004;2022-08-18T03:53:28;18.68;73.96
65421;DHT22;52028;50.658;14.004;2022-08-18T03:55:53;18.82;73.71
65421;DHT22;52028;50.658;14.004;2022-08-18T03:58:19;18.71;74.21
65421;DHT22;52028;50.658;14.004;2022-08-18T04:00:44;18.72;74.32
65421;DHT22;52028;50.658;14.004;2022-08-18T04:03:09;18.68;74.68
65421;DHT22;52028;50.658;14.004;2022-08-18T04:05:38;18.78;74.48
65421;DHT22;52028;50.658;14.004;2022-08-18T04:08:04;18.71;74.55
65421;DHT22;52028;50.658;14.004;2022-08-18T04:10:31;18.64;75.09
65421;DHT22;52028;50.658;14.004;2022-08-18T04:12:56;18.60;75.28
65421;DHT22;52028;50.658;14.004;2022-08-18T04:15:22;18.58;75.58
65421;DHT22;52028;50.658;14.004;2022-08-18T04:17:48;18.48;75.88
65421;DHT22;52028;50.658;14.004;2022-08-18T04:20:13;18.34;76.50
65421;DHT22;52028;50.658;14.004;2022-08-18T04:22:39;18.38;76.45
65421;DHT22;52028;50.658;14.004;2022-08-18T04:25:05;18.47;76.05
65421;DHT22;52028;50.658;14.004;2022-08-18T04:27:34;18.53;75.67
65421;DHT22;52028;50.658;14.004;2022-08-18T04:30:00;18.58;75.71
65421;DHT22;52028;50.658;14.004;2022-08-18T04:32:25;18.68;75.13
65421;DHT22;52028;50.658;14.004;2022-08-18T04:34:51;18.71;75.09
65421;DHT22;52028;50.658;14.004;2022-08-18T04:37:17;18.64;76.11
65421;DHT22;52028;50.658;14.004;2022-08-18T04:39:42;18.38;77.25
65421;DHT22;52028;50.658;14.004;2022-08-18T04:42:08;18.36;77.42
65421;DHT22;52028;50.658;14.004;2022-08-18T04:44:34;18.48;77.36
65421;DHT22;52028;50.658;14.004;2022-08-18T04:47:03;18.67;77.06
65421;DHT22;52028;50.658;14.004;2022-08-18T04:49:29;18.72;76.79
65421;DHT22;52028;50.658;14.004;2022-08-18T04:51:56;18.82;76.98
65421;DHT22;52028;50.658;14.004;2022-08-18T04:54:41;19.03;75.74
65421;DHT22;52028;50.658;14.004;2022-08-18T04:57:11;19.23;75.03
65421;DHT22;52028;50.658;14.004;2022-08-18T04:59:37;19.30;74.84
65421;DHT22;52028;50.658;14.004;2022-08-18T05:02:03;19.40;74.79
65421;DHT22;52028;50.658;14.004;2022-08-18T05:04:35;19.61;73.85
65421;DHT22;52028;50.658;14.004;2022-08-18T05:07:11;19.64;73.22
65421;DHT22;52028;50.658;14.004;2022-08-18T05:09:38;19.75;72.79
65421;DHT22;52028;50.658;14.004;2022-08-18T05:12:04;19.82;72.50
65421;DHT22;52028;50.658;14.004;2022-08-18T05:14:30;19.81;72.56
65421;DHT22;52028;50.658;14.004;2022-08-18T05:17:03;20.06;72.01
65421;DHT22;52028;50.658;14.004;2022-08-18T05:19:29;20.20;71.22
65421;DHT22;52028;50.658;14.004;2022-08-18T05:21:55;20.41;70.56
65421;DHT22;52028;50.658;14.004;2022-08-18T05:24:22;20.50;70.25
65421;DHT22;52028;50.658;14.004;2022-08-18T05:26:50;20.43;69.99
65421;DHT22;52028;50.658;14.004;2022-08-18T05:29:16;20.55;69.86
65421;DHT22;52028;50.658;14.004;2022-08-18T05:31:41;20.67;69.41
65421;DHT22;52028;50.658;14.004;2022-08-18T05:34:07;20.76;69.06
65421;DHT22;52028;50.658;14.004;2022-08-18T05:36:46;20.92;68.84
65421;DHT22;52028;50.658;14.004;2022-08-18T05:41:49;21.06;68.04
65421;DHT22;52028;50.658;14.004;2022-08-18T05:44:19;21.20;67.70
65421;DHT22;52028;50.658;14.004;2022-08-18T05:46:51;21.26;67.45
65421;DHT22;52028;50.658;14.004;2022-08-18T05:49:17;21.46;67.07
65421;DHT22;52028;50.658;14.004;2022-08-18T05:52:14;21.59;66.40
65421;DHT22;52028;50.658;14.004;2022-08-18T05:54:46;21.62;65.99
65421;DHT22;52028;50.658;14.004;2022-08-18T05:57:37;21.33;67.23
65421;DHT22;52028;50.658;14.004;2022-08-18T06:00:04;21.46;67.04
65421;DHT22;52028;50.658;14.004;2022-08-18T06:05:09;21.72;66.07
65421;DHT22;52028;50.658;14.004;2022-08-18T06:07:58;21.96;65.27
65421;DHT22;52028;50.658;14.004;2022-08-18T06:10:24;21.89;65.04
65421;DHT22;52028;50.658;14.004;2022-08-18T06:12:54;21.82;65.27
65421;DHT22;52028;50.658;14.004;2022-08-18T06:15:51;22.00;64.68
65421;DHT22;52028;50.658;14.004;2022-08-18T06:26:42;22.55;62.86
65421;DHT22;52028;50.658;14.004;2022-08-18T06:35:10;22.48;63.21
65421;DHT22;52028;50.658;14.004;2022-08-18T06:38:16;22.72;62.62
65421;DHT22;52028;50.658;14.004;2022-08-18T06:41:15;22.87;62.04
65421;DHT22;52028;50.658;14.004;2022-08-18T06:44:09;23.07;60.94
65421;DHT22;52028;50.658;14.004;2022-08-18T06:49:08;23.47;60.91
65421;DHT22;52028;50.658;14.004;2022-08-18T06:51:34;23.67;60.41
65421;DHT22;52028;50.658;14.004;2022-08-18T06:54:24;23.89;59.56
65421;DHT22;52028;50.658;14.004;2022-08-18T06:56:52;23.85;59.43
65421;DHT22;52028;50.658;14.004;2022-08-18T06:59:28;23.55;60.38
65421;DHT22;52028;50.658;14.004;2022-08-18T07:02:16;23.46;60.66
65421;DHT22;52028;50.658;14.004;2022-08-18T07:05:05;23.62;60.07
65421;DHT22;52028;50.658;14.004;2022-08-18T07:07:37;23.88;59.65
65421;DHT22;52028;50.658;14.004;2022-08-18T07:10:27;24.20;58.43
65421;DHT22;52028;50.658;14.004;2022-08-18T07:15:33;24.46;57.59
65421;DHT22;52028;50.658;14.004;2022-08-18T07:18:03;24.53;57.42
65421;DHT22;52028;50.658;14.004;2022-08-18T07:20:30;24.30;57.92
65421;DHT22;52028;50.658;14.004;2022-08-18T07:23:05;24.43;57.74
65421;DHT22;52028;50.658;14.004;2022-08-18T07:25:37;24.31;58.17
65421;DHT22;52028;50.658;14.004;2022-08-18T07:28:03;24.36;57.86
65421;DHT22;52028;50.658;14.004;2022-08-18T07:35:36;24.51;57.70
65421;DHT22;52028;50.658;14.004;2022-08-18T07:38:18;24.63;57.37
65421;DHT22;52028;50.658;14.004;2022-08-18T07:40:51;24.60;57.39
65421;DHT22;52028;50.658;14.004;2022-08-18T07:43:26;24.69;57.40
65421;DHT22;52028;50.658;14.004;2022-08-18T07:45:56;24.72;58.05
65421;DHT22;52028;50.658;14.004;2022-08-18T07:48:31;24.78;58.07
65421;DHT22;52028;50.658;14.004;2022-08-18T07:54:02;24.85;58.57
65421;DHT22;52028;50.658;14.004;2022-08-18T07:56:40;24.69;58.89
65421;DHT22;52028;50.658;14.004;2022-08-18T08:04:50;25.10;56.56
65421;DHT22;52028;50.658;14.004;2022-08-18T08:07:29;25.09;56.44
65421;DHT22;52028;50.658;14.004;2022-08-18T08:10:18;24.78;56.99
65421;DHT22;52028;50.658;14.004;2022-08-18T08:15:34;25.22;56.97
65421;DHT22;52028;50.658;14.004;2022-08-18T08:18:11;25.47;56.50
65421;DHT22;52028;50.658;14.004;2022-08-18T08:20:44;25.77;55.49
65421;DHT22;52028;50.658;14.004;2022-08-18T08:23:32;25.54;56.50
65421;DHT22;52028;50.658;14.004;2022-08-18T08:34:13;26.33;54.56
65421;DHT22;52028;50.658;14.004;2022-08-18T08:36:44;26.40;54.01
65421;DHT22;52028;50.658;14.004;2022-08-18T08:39:26;26.39;53.79
65421;DHT22;52028;50.658;14.004;2022-08-18T08:42:00;26.44;53.49
65421;DHT22;52028;50.658;14.004;2022-08-18T08:44:43;26.84;53.03
65421;DHT22;52028;50.658;14.004;2022-08-18T08:50:22;27.59;51.56
65421;DHT22;52028;50.658;14.004;2022-08-18T08:55:24;27.69;50.84
65421;DHT22;52028;50.658;14.004;2022-08-18T09:00:35;27.81;50.24
65421;DHT22;52028;50.658;14.004;2022-08-18T09:11:29;28.50;47.72
65421;DHT22;52028;50.658;14.004;2022-08-18T09:14:06;28.54;47.54
65421;DHT22;52028;50.658;14.004;2022-08-18T09:21:59;28.17;47.21
65421;DHT22;52028;50.658;14.004;2022-08-18T09:24:29;28.20;47.16
65421;DHT22;52028;50.658;14.004;2022-08-18T09:37:52;28.98;45.84
65421;DHT22;52028;50.658;14.004;2022-08-18T09:40:50;28.78;45.35
65421;DHT22;52028;50.658;14.004;2022-08-18T09:43:39;28.75;44.91
65421;DHT22;52028;50.658;14.004;2022-08-18T09:51:50;28.79;45.75
65421;DHT22;52028;50.658;14.004;2022-08-18T09:54:18;28.92;45.10
65421;DHT22;52028;50.658;14.004;2022-08-18T10:01:56;29.29;44.59
65421;DHT22;52028;50.658;14.004;2022-08-18T10:04:29;29.51;43.86
65421;DHT22;52028;50.658;14.004;2022-08-18T10:10:22;29.43;44.29
65421;DHT22;52028;50.658;14.004;2022-08-18T10:18:44;28.95;45.01
65421;DHT22;52028;50.658;14.004;2022-08-18T10:21:17;28.98;44.90
65421;DHT22;52028;50.658;14.004;2022-08-18T10:29:06;29.64;44.02
65421;DHT22;52028;50.658;14.004;2022-08-18T10:34:44;30.23;42.66
65421;DHT22;52028;50.658;14.004;2022-08-18T10:37:38;30.51;41.95
65421;DHT22;52028;50.658;14.004;2022-08-18T10:42:41;30.78;41.88
65421;DHT22;52028;50.658;14.004;2022-08-18T10:45:19;30.65;41.55
65421;DHT22;52028;50.658;14.004;2022-08-18T10:50:25;30.33;42.30
65421;DHT22;52028;50.658;14.004;2022-08-18T11:04:19;31.09;41.36
65421;DHT22;52028;50.658;14.004;2022-08-18T11:06:57;31.39;40.74
65421;DHT22;52028;50.658;14.004;2022-08-18T11:09:27;31.70;40.21
65421;DHT22;52028;50.658;14.004;2022-08-18T11:11:56;31.74;40.33
65421;DHT22;52028;50.658;14.004;2022-08-18T11:14:46;31.92;39.80
65421;DHT22;52028;50.658;14.004;2022-08-18T11:17:27;31.91;39.63
65421;DHT22;52028;50.658;14.004;2022-08-18T11:19:58;31.75;40.09
65421;DHT22;52028;50.658;14.004;2022-08-18T11:22:27;31.88;40.15
65421;DHT22;52028;50.658;14.004;2022-08-18T11:24:53;32.09;39.57
65421;DHT22;52028;50.658;14.004;2022-08-18T11:27:32;31.99;39.38
65421;DHT22;52028;50.658;14.004;2022-08-18T11:30:00;31.93;39.62
65421;DHT22;52028;50.658;14.004;2022-08-18T11:32:44;31.95;39.40
65421;DHT22;52028;50.658;14.004;2022-08-18T11:42:58;32.95;37.31
65421;DHT22;52028;50.658;14.004;2022-08-18T11:45:29;33.81;36.02
65421;DHT22;52028;50.658;14.004;2022-08-18T11:50:59;35.52;33.44
65421;DHT22;52028;50.658;14.004;2022-08-18T12:01:32;35.52;32.57
65421;DHT22;52028;50.658;14.004;2022-08-18T12:14:42;37.90;28.76
65421;DHT22;52028;50.658;14.004;2022-08-18T12:17:15;38.62;27.78
65421;DHT22;52028;50.658;14.004;2022-08-18T12:19:40;38.45;27.93
65421;DHT22;52028;50.658;14.004;2022-08-18T12:22:15;37.94;28.46
65421;DHT22;52028;50.658;14.004;2022-08-18T12:24:41;37.51;28.46
65421;DHT22;52028;50.658;14.004;2022-08-18T12:27:09;36.60;29.63
65421;DHT22;52028;50.658;14.004;2022-08-18T12:29:38;35.41;31.27
65421;DHT22;52028;50.658;14.004;2022-08-18T12:32:03;35.50;31.21
65421;DHT22;52028;50.658;14.004;2022-08-18T12:34:29;36.63;30.03
65421;DHT22;52028;50.658;14.004;2022-08-18T12:36:56;37.14;29.33
65421;DHT22;52028;50.658;14.004;2022-08-18T12:39:22;36.79;29.58
65421;DHT22;52028;50.658;14.004;2022-08-18T12:41:48;35.86;31.02
65421;DHT22;52028;50.658;14.004;2022-08-18T12:44:14;35.66;31.46
65421;DHT22;52028;50.658;14.004;2022-08-18T12:46:40;35.39;31.39
65421;DHT22;52028;50.658;14.004;2022-08-18T12:49:29;34.99;31.93
65421;DHT22;52028;50.658;14.004;2022-08-18T12:51:53;34.91;32.14
65421;DHT22;52028;50.658;14.004;2022-08-18T12:54:19;35.08;32.30
65421;DHT22;52028;50.658;14.004;2022-08-18T12:56:49;35.36;32.00
65421;DHT22;52028;50.658;14.004;2022-08-18T12:59:15;35.38;31.86
65421;DHT22;52028;50.658;14.004;2022-08-18T13:01:41;35.91;31.32
65421;DHT22;52028;50.658;14.004;2022-08-18T13:04:06;38.13;28.43
65421;DHT22;52028;50.658;14.004;2022-08-18T13:06:35;39.20;26.75
65421;DHT22;52028;50.658;14.004;2022-08-18T13:09:02;40.31;25.69
65421;DHT22;52028;50.658;14.004;2022-08-18T13:11:28;41.42;24.54
65421;DHT22;52028;50.658;14.004;2022-08-18T13:13:53;42.66;23.38
65421;DHT22;52028;50.658;14.004;2022-08-18T13:16:19;43.81;21.92
65421;DHT22;52028;50.658;14.004;2022-08-18T13:18:45;44.67;20.95
65421;DHT22;52028;50.658;14.004;2022-08-18T13:21:13;44.12;21.38
65421;DHT22;52028;50.658;14.004;2022-08-18T13:23:38;44.53;21.18
65421;DHT22;52028;50.658;14.004;2022-08-18T13:26:06;44.03;21.38
65421;DHT22;52028;50.658;14.004;2022-08-18T13:28:33;43.34;21.51
65421;DHT22;52028;50.658;14.004;2022-08-18T13:30:59;42.40;22.60
65421;DHT22;52028;50.658;14.004;2022-08-18T13:33:26;41.04;23.06
65421;DHT22;52028;50.658;14.004;2022-08-18T13:35:54;39.92;24.30
65421;DHT22;52028;50.658;14.004;2022-08-18T13:38:23;39.13;25.75
65421;DHT22;52028;50.658;14.004;2022-08-18T13:40:50;37.96;27.33
65421;DHT22;52028;50.658;14.004;2022-08-18T13:43:18;36.25;29.53
65421;DHT22;52028;50.658;14.004;2022-08-18T13:45:46;34.92;32.02
65421;DHT22;52028;50.658;14.004;2022-08-18T13:48:14;34.70;32.74
65421;DHT22;52028;50.658;14.004;2022-08-18T13:50:39;34.35;33.32
65421;DHT22;52028;50.658;14.004;2022-08-18T13:53:08;33.90;33.97
65421;DHT22;52028;50.658;14.004;2022-08-18T13:55:37;33.57;34.69
65421;DHT22;52028;50.658;14.004;2022-08-18T13:58:02;33.53;34.77
65421;DHT22;52028;50.658;14.004;2022-08-18T14:00:28;33.50;34.96
65421;DHT22;52028;50.658;14.004;2022-08-18T14:02:54;34.66;33.37
65421;DHT22;52028;50.658;14.004;2022-08-18T14:05:21;35.42;32.23
65421;DHT22;52028;50.658;14.004;2022-08-18T14:07:47;35.45;32.14
65421;DHT22;52028;50.658;14.004;2022-08-18T14:10:13;34.97;32.76
65421;DHT22;52028;50.658;14.004;2022-08-18T14:12:40;34.56;33.39
65421;DHT22;52028;50.658;14.004;2022-08-18T14:15:08;34.86;33.06
65421;DHT22;52028;50.658;14.004;2022-08-18T14:17:34;34.71;33.33
65421;DHT22;52028;50.658;14.004;2022-08-18T14:20:00;34.80;33.37
65421;DHT22;52028;50.658;14.004;2022-08-18T14:22:44;34.79;33.54
65421;DHT22;52028;50.658;14.004;2022-08-18T14:25:28;35.18;33.16
65421;DHT22;52028;50.658;14.004;2022-08-18T14:28:12;35.47;32.65
65421;DHT22;52028;50.658;14.004;2022-08-18T14:30:38;35.74;32.53
65421;DHT22;52028;50.658;14.004;2022-08-18T14:33:05;35.57;32.56
65421;DHT22;52028;50.658;14.004;2022-08-18T14:35:31;35.94;32.12
65421;DHT22;52028;50.658;14.004;2022-08-18T14:37:57;36.65;31.16
65421;DHT22;52028;50.658;14.004;2022-08-18T14:40:23;37.07;30.54
65421;DHT22;52028;50.658;14.004;2022-08-18T14:42:48;36.77;30.71
65421;DHT22;52028;50.658;14.004;2022-08-18T14:45:14;36.77;30.84
65421;DHT22;52028;50.658;14.004;2022-08-18T14:47:40;36.87;30.96
65421;DHT22;52028;50.658;14.004;2022-08-18T14:50:07;37.07;30.65
65421;DHT22;52028;50.658;14.004;2022-08-18T14:52:37;36.55;31.26
65421;DHT22;52028;50.658;14.004;2022-08-18T14:55:02;35.95;32.18
65421;DHT22;52028;50.658;14.004;2022-08-18T14:57:28;34.79;33.59
65421;DHT22;52028;50.658;14.004;2022-08-18T14:59:53;34.20;34.63
65421;DHT22;52028;50.658;14.004;2022-08-18T15:02:19;34.08;34.85
65421;DHT22;52028;50.658;14.004;2022-08-18T15:04:44;33.51;35.79
65421;DHT22;52028;50.658;14.004;2022-08-18T15:07:10;33.22;36.29
65421;DHT22;52028;50.658;14.004;2022-08-18T15:09:35;33.08;36.52
65421;DHT22;52028;50.658;14.004;2022-08-18T15:12:01;32.77;36.95
65421;DHT22;52028;50.658;14.004;2022-08-18T15:14:28;32.61;37.40
65421;DHT22;52028;50.658;14.004;2022-08-18T15:17:03;32.45;37.80
65421;DHT22;52028;50.658;14.004;2022-08-18T15:19:30;32.22;38.04
65421;DHT22;52028;50.658;14.004;2022-08-18T15:21:56;32.12;38.38
65421;DHT22;52028;50.658;14.004;2022-08-18T15:24:40;31.99;38.55
65421;DHT22;52028;50.658;14.004;2022-08-18T15:27:32;32.01;38.58
65421;DHT22;52028;50.658;14.004;2022-08-18T15:30:02;32.04;38.75
65421;DHT22;52028;50.658;14.004;2022-08-18T15:32:29;31.93;38.69
65421;DHT22;52028;50.658;14.004;2022-08-18T15:34:54;32.89;36.78
65421;DHT22;52028;50.658;14.004;2022-08-18T15:37:20;32.34;37.62
65421;DHT22;52028;50.658;14.004;2022-08-18T15:39:47;32.10;38.23
65421;DHT22;52028;50.658;14.004;2022-08-18T15:42:13;31.81;38.77
65421;DHT22;52028;50.658;14.004;2022-08-18T15:44:38;31.60;38.99
65421;DHT22;52028;50.658;14.004;2022-08-18T15:47:04;31.48;39.20
65421;DHT22;52028;50.658;14.004;2022-08-18T15:49:30;31.46;39.30
65421;DHT22;52028;50.658;14.004;2022-08-18T15:51:56;31.37;39.46
65421;DHT22;52028;50.658;14.004;2022-08-18T15:54:22;31.39;39.39
65421;DHT22;52028;50.658;14.004;2022-08-18T15:56:47;31.37;39.66
65421;DHT22;52028;50.658;14.004;2022-08-18T15:59:12;31.54;40.03
65421;DHT22;52028;50.658;14.004;2022-08-18T16:01:38;31.41;40.67
65421;DHT22;52028;50.658;14.004;2022-08-18T16:04:05;31.53;41.19
65421;DHT22;52028;50.658;14.004;2022-08-18T16:06:31;31.96;39.81
65421;DHT22;52028;50.658;14.004;2022-08-18T16:08:57;33.43;37.01
65421;DHT22;52028;50.658;14.004;2022-08-18T16:11:23;34.54;35.13
65421;DHT22;52028;50.658;14.004;2022-08-18T16:13:49;34.53;34.95
65421;DHT22;52028;50.658;14.004;2022-08-18T16:16:17;34.31;35.45
65421;DHT22;52028;50.658;14.004;2022-08-18T16:18:43;34.04;35.67
65421;DHT22;52028;50.658;14.004;2022-08-18T16:21:12;34.35;35.16
65421;DHT22;52028;50.658;14.004;2022-08-18T16:23:41;33.77;36.40
65421;DHT22;52028;50.658;14.004;2022-08-18T16:26:07;32.65;37.80
65421;DHT22;52028;50.658;14.004;2022-08-18T16:28:33;32.08;38.90
65421;DHT22;52028;50.658;14.004;2022-08-18T16:30:59;31.58;39.98
65421;DHT22;52028;50.658;14.004;2022-08-18T16:33:25;31.43;40.55
65421;DHT22;52028;50.658;14.004;2022-08-18T16:35:50;31.20;40.95
65421;DHT22;52028;50.658;14.004;2022-08-18T16:38:17;31.29;40.86
65421;DHT22;52028;50.658;14.004;2022-08-18T16:40:43;31.33;40.73
65421;DHT22;52028;50.658;14.004;2022-08-18T16:43:09;31.31;40.85
65421;DHT22;52028;50.658;14.004;2022-08-18T16:45:39;31.02;41.63
65421;DHT22;52028;50.658;14.004;2022-08-18T16:48:06;30.94;41.70
65421;DHT22;52028;50.658;14.004;2022-08-18T16:50:33;31.02;41.66
65421;DHT22;52028;50.658;14.004;2022-08-18T16:52:59;31.30;41.26
65421;DHT22;52028;50.658;14.004;2022-08-18T16:55:24;31.36;41.27
65421;DHT22;52028;50.658;14.004;2022-08-18T16:57:50;31.48;41.27
65421;DHT22;52028;50.658;14.004;2022-08-18T17:00:34;31.25;41.49
65421;DHT22;52028;50.658;14.004;2022-08-18T17:03:18;31.18;41.85
65421;DHT22;52028;50.658;14.004;2022-08-18T17:06:05;30.86;42.42
65421;DHT22;52028;50.658;14.004;2022-08-18T17:08:31;30.85;42.72
65421;DHT22;52028;50.658;14.004;2022-08-18T17:10:59;30.67;42.89
65421;DHT22;52028;50.658;14.004;2022-08-18T17:13:25;30.53;43.25
65421;DHT22;52028;50.658;14.004;2022-08-18T17:15:50;30.20;44.03
65421;DHT22;52028;50.658;14.004;2022-08-18T17:18:16;29.99;44.50
65421;DHT22;52028;50.658;14.004;2022-08-18T17:20:42;29.90;45.01
65421;DHT22;52028;50.658;14.004;2022-08-18T17:23:07;29.72;45.47
65421;DHT22;52028;50.658;14.004;2022-08-18T17:25:33;29.67;45.45
65421;DHT22;52028;50.658;14.004;2022-08-18T17:27:59;29.58;45.56
65421;DHT22;52028;50.658;14.004;2022-08-18T17:30:29;29.54;45.94
65421;DHT22;52028;50.658;14.004;2022-08-18T17:33:07;29.46;46.11
65421;DHT22;52028;50.658;14.004;2022-08-18T17:35:40;29.29;46.41
65421;DHT22;52028;50.658;14.004;2022-08-18T17:38:42;29.26;46.70
65421;DHT22;52028;50.658;14.004;2022-08-18T17:41:10;29.06;46.99
65421;DHT22;52028;50.658;14.004;2022-08-18T17:43:37;29.02;47.19
65421;DHT22;52028;50.658;14.004;2022-08-18T17:46:08;28.92;47.43
65421;DHT22;52028;50.658;14.004;2022-08-18T17:48:45;28.83;47.83
65421;DHT22;52028;50.658;14.004;2022-08-18T17:53:59;28.63;48.58
65421;DHT22;52028;50.658;14.004;2022-08-18T17:56:30;28.67;48.52
65421;DHT22;52028;50.658;14.004;2022-08-18T17:59:13;28.57;48.90
65421;DHT22;52028;50.658;14.004;2022-08-18T18:01:41;28.64;48.71
65421;DHT22;52028;50.658;14.004;2022-08-18T18:04:08;28.60;49.00
65421;DHT22;52028;50.658;14.004;2022-08-18T18:11:44;28.55;49.12
65421;DHT22;52028;50.658;14.004;2022-08-18T18:14:27;28.51;49.13
65421;DHT22;52028;50.658;14.004;2022-08-18T18:17:13;28.44;49.40
65421;DHT22;52028;50.658;14.004;2022-08-18T18:19:48;28.37;49.64